createdAt,value
2022-09-24T00:01:28.592Z,12.33
2022-09-24T00:03:31.193Z,12.31
2022-09-24T00:05:40.006Z,12.30
2022-09-24T00:07:42.543Z,12.25
2022-09-24T00:09:45.089Z,12.24
2022-09-24T00:11:47.846Z,12.24
2022-09-24T00:13:52.256Z,12.28
2022-09-24T00:15:54.877Z,12.27
2022-09-24T00:17:58.008Z,12.27
2022-09-24T00:20:00.657Z,12.28
2022-09-24T00:22:07.484Z,12.30
2022-09-24T00:24:33.461Z,12.29
2022-09-24T00:26:50.641Z,12.31
2022-09-24T00:28:53.787Z,12.29
2022-09-24T00:30:58.384Z,12.28
2022-09-24T00:33:00.972Z,12.27
2022-09-24T00:35:03.589Z,12.27
2022-09-24T00:37:07.555Z,12.29
2022-09-24T00:39:10.153Z,12.30
2022-09-24T00:41:12.703Z,12.31
2022-09-24T00:43:26.523Z,12.30
2022-09-24T00:45:31.786Z,12.30
2022-09-24T00:47:37.056Z,12.32
2022-09-24T00:49:39.708Z,12.32
2022-09-24T00:51:43.638Z,12.32
2022-09-24T00:53:51.067Z,12.31
2022-09-24T00:55:55.594Z,12.28
2022-09-24T00:57:59.912Z,12.29
2022-09-24T01:00:02.820Z,12.25
2022-09-24T01:02:06.560Z,12.24
2022-09-24T01:04:10.171Z,12.24
2022-09-24T01:06:13.474Z,12.26
2022-09-24T01:08:18.741Z,12.26
2022-09-24T01:10:46.730Z,12.27
2022-09-24T01:12:58.978Z,12.29
2022-09-24T01:15:12.562Z,12.31
2022-09-24T01:17:28.646Z,12.31
2022-09-24T01:20:03.200Z,12.30
2022-09-24T01:22:15.610Z,12.30
2022-09-24T01:24:41.633Z,12.29
2022-09-24T01:27:07.588Z,12.27
2022-09-24T01:29:32.297Z,12.27
2022-09-24T01:31:41.775Z,12.29
2022-09-24T01:33:48.131Z,12.28
2022-09-24T01:35:54.869Z,12.27
2022-09-24T01:38:03.571Z,12.27
2022-09-24T01:40:10.674Z,12.23
2022-09-24T01:42:14.380Z,12.20
2022-09-24T01:44:18.472Z,12.19
2022-09-24T01:46:25.064Z,12.20
2022-09-24T01:48:27.854Z,12.20
2022-09-24T01:50:36.082Z,12.20
2022-09-24T01:52:45.362Z,12.17
2022-09-24T01:54:51.967Z,12.13
2022-09-24T01:57:00.610Z,12.17
2022-09-24T01:59:07.753Z,12.12
2022-09-24T02:01:15.876Z,12.08
2022-09-24T02:03:26.600Z,12.03
2022-09-24T02:05:35.369Z,12.02
2022-09-24T02:07:43.458Z,12.02
2022-09-24T02:09:46.222Z,11.98
2022-09-24T02:11:53.031Z,11.99
2022-09-24T02:14:00.653Z,11.96
2022-09-24T02:16:06.772Z,11.95
2022-09-24T02:18:12.583Z,11.90
2022-09-24T02:20:20.440Z,11.87
2022-09-24T02:22:24.969Z,11.85
2022-09-24T02:24:33.692Z,11.85
2022-09-24T02:26:36.286Z,11.83
2022-09-24T02:28:39.071Z,11.85
2022-09-24T02:30:47.324Z,11.84
2022-09-24T02:32:51.811Z,11.83
2022-09-24T02:34:57.863Z,11.85
2022-09-24T02:37:06.259Z,11.86
2022-09-24T02:39:09.007Z,11.84
2022-09-24T02:41:11.691Z,11.86
2022-09-24T02:43:14.245Z,11.89
2022-09-24T02:45:17.131Z,11.92
2022-09-24T02:47:20.031Z,11.93
2022-09-24T02:49:22.551Z,12.10
2022-09-24T02:51:25.454Z,12.14
2022-09-24T02:53:29.352Z,12.07
2022-09-24T02:55:31.923Z,12.03
2022-09-24T02:57:34.478Z,12.01
2022-09-24T02:59:37.083Z,12.01
2022-09-24T03:01:39.730Z,12.00
2022-09-24T03:03:42.378Z,12.03
2022-09-24T03:05:45.953Z,12.05
2022-09-24T03:07:48.525Z,12.10
2022-09-24T03:09:52.431Z,12.06
2022-09-24T03:11:56.060Z,12.03
2022-09-24T03:13:59.125Z,12.02
2022-09-24T03:16:02.090Z,12.02
2022-09-24T03:18:05.420Z,12.01
2022-09-24T03:20:08.864Z,12.01
2022-09-24T03:22:11.419Z,12.02
2022-09-24T03:24:13.988Z,12.01
2022-09-24T03:26:18.550Z,12.03
2022-09-24T03:28:21.426Z,12.02
2022-09-24T03:30:41.972Z,12.01
2022-09-24T03:32:44.525Z,12.00
2022-09-24T03:34:47.052Z,12.00
2022-09-24T03:36:49.641Z,12.01
2022-09-24T03:38:54.285Z,12.06
2022-09-24T03:40:57.124Z,12.04
2022-09-24T03:43:01.065Z,12.03
2022-09-24T03:45:03.713Z,12.03
2022-09-24T03:47:06.429Z,12.02
2022-09-24T03:49:09.025Z,12.03
2022-09-24T03:51:13.422Z,12.05
2022-09-24T03:53:16.712Z,12.05
2022-09-24T03:55:19.244Z,12.02
2022-09-24T03:57:21.769Z,12.01
2022-09-24T03:59:25.854Z,12.00
2022-09-24T04:01:29.054Z,11.98
2022-09-24T04:03:31.784Z,11.98
2022-09-24T04:05:34.809Z,11.99
2022-09-24T04:07:37.339Z,12.00
2022-09-24T04:09:39.884Z,12.03
2022-09-24T04:11:42.742Z,11.98
2022-09-24T04:13:45.658Z,11.97
2022-09-24T04:15:50.339Z,11.97
2022-09-24T04:17:53.783Z,11.98
2022-09-24T04:19:56.813Z,11.98
2022-09-24T04:21:59.815Z,12.00
2022-09-24T04:24:02.708Z,11.98
2022-09-24T04:26:05.304Z,11.97
2022-09-24T04:28:10.276Z,12.02
2022-09-24T04:30:14.710Z,12.00
2022-09-24T04:32:18.563Z,11.99
2022-09-24T04:34:21.863Z,11.93
2022-09-24T04:36:24.404Z,11.94
2022-09-24T04:38:26.964Z,11.94
2022-09-24T04:40:31.406Z,11.94
2022-09-24T04:42:34.081Z,11.97
2022-09-24T04:44:36.606Z,11.95
2022-09-24T04:46:40.250Z,11.94
2022-09-24T04:48:44.236Z,11.95
2022-09-24T04:50:46.750Z,11.96
2022-09-24T04:52:49.475Z,11.98
2022-09-24T04:54:52.047Z,11.97
2022-09-24T04:56:54.615Z,11.98
2022-09-24T04:58:57.470Z,11.95
2022-09-24T05:01:03.984Z,11.96
2022-09-24T05:03:06.566Z,11.98
2022-09-24T05:05:11.971Z,12.00
2022-09-24T05:07:14.668Z,11.96
2022-09-24T05:09:17.567Z,11.96
2022-09-24T05:11:20.450Z,11.96
2022-09-24T05:13:22.985Z,11.98
2022-09-24T05:15:25.625Z,11.94
2022-09-24T05:17:28.248Z,11.96
2022-09-24T05:19:30.793Z,11.98
2022-09-24T05:21:34.906Z,12.00
2022-09-24T05:23:37.456Z,12.01
2022-09-24T05:26:00.062Z,12.02
2022-09-24T05:28:01.846Z,12.05
2022-09-24T05:30:06.129Z,12.07
2022-09-24T05:32:10.541Z,12.08
2022-09-24T05:34:14.238Z,12.10
2022-09-24T05:36:16.831Z,12.11
2022-09-24T05:38:20.747Z,12.13
2022-09-24T05:40:41.148Z,12.13
2022-09-24T05:42:43.705Z,12.13
2022-09-24T05:44:51.331Z,12.15
2022-09-24T05:46:54.639Z,12.18
2022-09-24T05:48:57.563Z,12.20
2022-09-24T05:51:01.856Z,12.20
2022-09-24T05:53:05.381Z,12.20
2022-09-24T05:55:11.237Z,12.17
2022-09-24T05:57:15.572Z,12.18
2022-09-24T05:59:18.141Z,12.19
2022-09-24T06:01:20.815Z,12.19
2022-09-24T06:03:23.457Z,12.21
2022-09-24T06:05:26.113Z,12.22
2022-09-24T06:07:28.672Z,12.24
2022-09-24T06:09:31.270Z,12.24
2022-09-24T06:11:39.713Z,12.23
2022-09-24T06:13:42.920Z,12.26
2022-09-24T06:15:46.232Z,12.25
2022-09-24T06:17:48.903Z,12.28
2022-09-24T06:19:52.096Z,12.29
2022-09-24T06:21:54.988Z,12.33
2022-09-24T06:23:57.565Z,12.35
2022-09-24T06:26:00.154Z,12.38
2022-09-24T06:28:05.758Z,12.40
2022-09-24T06:30:09.766Z,12.42
2022-09-24T06:32:12.320Z,12.44
2022-09-24T06:34:15.507Z,12.46
2022-09-24T06:36:18.079Z,12.47
2022-09-24T06:38:21.207Z,12.51
2022-09-24T06:40:26.040Z,12.55
2022-09-24T06:42:28.744Z,12.57
2022-09-24T06:44:34.538Z,12.60
2022-09-24T06:46:37.118Z,12.70
2022-09-24T06:48:39.867Z,12.77
2022-09-24T06:50:44.269Z,12.77
2022-09-24T06:52:46.866Z,12.77
2022-09-24T06:54:49.407Z,12.85
2022-09-24T06:56:52.595Z,12.81
2022-09-24T06:58:55.841Z,12.85
2022-09-24T07:01:02.332Z,12.86
2022-09-24T07:03:05.605Z,12.87
2022-09-24T07:05:10.352Z,12.87
2022-09-24T07:07:32.780Z,12.86
2022-09-24T07:09:36.259Z,12.89
2022-09-24T07:11:39.514Z,12.89
2022-09-24T07:13:42.097Z,12.90
2022-09-24T07:15:45.817Z,12.92
2022-09-24T07:17:50.019Z,12.94
2022-09-24T07:19:52.729Z,12.97
2022-09-24T07:21:55.252Z,13.04
2022-09-24T07:23:58.688Z,13.02
2022-09-24T07:26:01.432Z,13.06
2022-09-24T07:28:05.399Z,13.08
2022-09-24T07:30:09.766Z,13.11
2022-09-24T07:32:12.384Z,13.12
2022-09-24T07:34:16.683Z,13.15
2022-09-24T07:36:19.229Z,13.17
2022-09-24T07:38:22.183Z,13.21
2022-09-24T07:40:26.779Z,13.21
2022-09-24T07:42:29.924Z,13.26
2022-09-24T07:44:32.507Z,13.27
2022-09-24T07:46:35.198Z,13.32
2022-09-24T07:48:37.759Z,13.33
2022-09-24T07:50:43.055Z,13.33
2022-09-24T07:52:51.188Z,13.38
2022-09-24T07:54:54.217Z,13.41
2022-09-24T07:56:56.843Z,13.43
2022-09-24T07:58:59.411Z,13.50
2022-09-24T08:01:02.276Z,13.54
2022-09-24T08:03:05.686Z,13.51
2022-09-24T08:05:09.093Z,13.52
2022-09-24T08:07:14.024Z,13.49
2022-09-24T08:09:17.014Z,13.58
2022-09-24T08:11:21.315Z,13.53
2022-09-24T08:13:27.503Z,13.55
2022-09-24T08:15:30.607Z,13.52
2022-09-24T08:17:33.233Z,13.53
2022-09-24T08:19:35.947Z,13.56
2022-09-24T08:21:39.631Z,13.56
2022-09-24T08:23:44.206Z,13.56
2022-09-24T08:25:46.741Z,13.57
2022-09-24T08:27:49.259Z,13.58
2022-09-24T08:29:51.825Z,13.59
2022-09-24T08:31:55.018Z,13.62
2022-09-24T08:33:58.358Z,13.64
2022-09-24T08:36:01.859Z,13.65
2022-09-24T08:38:04.472Z,13.71
2022-09-24T08:40:17.729Z,13.74
2022-09-24T08:42:31.780Z,13.78
2022-09-24T08:44:58.234Z,13.79
2022-09-24T08:47:22.519Z,13.79
2022-09-24T08:49:32.727Z,13.80
2022-09-24T08:51:45.352Z,13.85
2022-09-24T08:53:55.815Z,13.84
2022-09-24T08:56:02.060Z,13.85
2022-09-24T08:58:23.028Z,13.86
2022-09-24T09:00:25.727Z,13.85
2022-09-24T09:02:42.407Z,13.85
2022-09-24T09:04:59.982Z,13.88
2022-09-24T09:07:15.885Z,13.87
2022-09-24T09:09:21.256Z,13.85
2022-09-24T09:11:31.013Z,13.85
2022-09-24T09:13:41.323Z,13.89
2022-09-24T09:15:48.206Z,13.90
2022-09-24T09:17:54.096Z,13.92
2022-09-24T09:19:59.144Z,13.92
2022-09-24T09:22:07.425Z,13.94
2022-09-24T09:24:17.983Z,14.00
2022-09-24T09:26:21.414Z,14.00
2022-09-24T09:28:27.693Z,14.01
2022-09-24T09:30:39.051Z,14.02
2022-09-24T09:32:52.258Z,14.03
2022-09-24T09:35:04.083Z,14.04
2022-09-24T09:37:10.181Z,14.03
2022-09-24T09:39:28.335Z,14.05
2022-09-24T09:41:37.027Z,14.04
2022-09-24T09:43:42.597Z,14.01
2022-09-24T09:45:56.324Z,14.02
2022-09-24T09:47:59.758Z,14.04
2022-09-24T09:50:06.296Z,14.03
2022-09-24T09:52:15.895Z,14.02
2022-09-24T09:54:18.419Z,14.04
2022-09-24T09:56:25.677Z,14.03
2022-09-24T09:58:29.906Z,14.02
2022-09-24T10:00:36.510Z,14.06
2022-09-24T10:02:42.963Z,14.11
2022-09-24T10:04:45.941Z,14.12
2022-09-24T10:06:48.495Z,14.16
2022-09-24T10:08:51.114Z,14.17
2022-09-24T10:10:56.227Z,14.19
2022-09-24T10:13:09.702Z,14.22
2022-09-24T10:15:19.358Z,14.23
2022-09-24T10:17:25.118Z,14.26
2022-09-24T10:19:29.813Z,14.28
2022-09-24T10:21:35.295Z,14.30
2022-09-24T10:23:40.512Z,14.35
2022-09-24T10:25:52.119Z,14.35
2022-09-24T10:28:16.948Z,14.38
2022-09-24T10:30:33.765Z,14.42
2022-09-24T10:32:37.890Z,14.48
2022-09-24T10:34:40.546Z,14.49
2022-09-24T10:36:51.986Z,14.50
2022-09-24T10:39:04.534Z,14.52
2022-09-24T10:41:17.177Z,14.54
2022-09-24T10:43:21.156Z,14.59
2022-09-24T10:45:31.689Z,14.60
2022-09-24T10:47:48.276Z,14.60
2022-09-24T10:50:13.258Z,14.65
2022-09-24T10:52:34.386Z,14.69
2022-09-24T10:54:51.474Z,14.72
2022-09-24T10:56:57.676Z,14.76
2022-09-24T10:59:28.116Z,14.76
2022-09-24T11:01:43.713Z,14.76
2022-09-24T11:04:03.470Z,14.75
2022-09-24T11:06:18.272Z,14.79
2022-09-24T11:08:35.243Z,14.83
2022-09-24T11:10:54.928Z,14.86
2022-09-24T11:13:07.979Z,14.93
2022-09-24T11:15:23.352Z,14.95
2022-09-24T11:17:39.434Z,14.97
2022-09-24T11:19:58.576Z,15.00
2022-09-24T11:22:10.116Z,15.05
2022-09-24T11:24:46.259Z,15.06
2022-09-24T11:27:02.324Z,15.08
2022-09-24T11:29:20.082Z,15.10
2022-09-24T11:31:31.463Z,15.10
2022-09-24T11:33:52.212Z,15.09
2022-09-24T11:36:17.057Z,15.06
2022-09-24T11:38:29.558Z,15.05
2022-09-24T11:40:52.937Z,15.04
2022-09-24T11:43:08.310Z,15.01
2022-09-24T11:45:41.158Z,15.03
2022-09-24T11:48:04.823Z,15.06
2022-09-24T11:50:24.311Z,15.09
2022-09-24T11:52:35.175Z,15.11
2022-09-24T11:54:44.419Z,15.12
2022-09-24T11:56:53.361Z,15.13
2022-09-24T11:59:01.138Z,15.17
2022-09-24T12:01:07.096Z,15.26
2022-09-24T12:03:19.915Z,15.37
2022-09-24T12:05:34.627Z,15.45
2022-09-24T12:07:46.549Z,15.56
2022-09-24T12:09:54.519Z,15.48
2022-09-24T12:12:03.941Z,15.48
2022-09-24T12:14:15.079Z,15.48
2022-09-24T12:16:21.951Z,15.45
2022-09-24T12:18:28.253Z,15.41
2022-09-24T12:20:32.208Z,15.38
2022-09-24T12:22:38.586Z,15.34
2022-09-24T12:24:46.221Z,15.28
2022-09-24T12:26:50.347Z,15.23
2022-09-24T12:29:18.131Z,15.19
2022-09-24T12:31:46.561Z,15.14
2022-09-24T12:33:55.006Z,15.10
2022-09-24T12:36:05.471Z,15.06
2022-09-24T12:38:13.974Z,15.02
2022-09-24T12:40:36.285Z,15.00
2022-09-24T12:42:44.667Z,14.98
2022-09-24T12:44:51.837Z,14.98
2022-09-24T12:46:56.815Z,14.96
2022-09-24T12:49:00.149Z,14.96
2022-09-24T12:51:06.199Z,14.94
2022-09-24T12:53:24.786Z,14.93
2022-09-24T12:55:30.934Z,14.90
2022-09-24T12:57:36.834Z,14.92
2022-09-24T12:59:51.369Z,14.90
2022-09-24T13:01:54.312Z,14.88
2022-09-24T13:04:05.966Z,14.88
2022-09-24T13:06:23.888Z,14.88
2022-09-24T13:08:28.377Z,14.89
2022-09-24T13:10:34.507Z,14.90
2022-09-24T13:12:37.078Z,14.91
2022-09-24T13:14:42.854Z,14.93
2022-09-24T13:16:49.473Z,14.95
2022-09-24T13:18:55.224Z,14.96
2022-09-24T13:21:01.509Z,15.00
2022-09-24T13:23:16.489Z,15.02
2022-09-24T13:25:23.543Z,15.07
2022-09-24T13:27:38.172Z,15.11
2022-09-24T13:29:41.541Z,15.13
2022-09-24T13:31:48.975Z,15.13
2022-09-24T13:33:54.881Z,15.09
2022-09-24T13:36:13.456Z,15.09
2022-09-24T13:38:22.701Z,15.08
2022-09-24T13:40:29.226Z,15.06
2022-09-24T13:42:38.330Z,15.02
2022-09-24T13:44:45.218Z,15.00
2022-09-24T13:46:51.210Z,14.97
2022-09-24T13:48:56.931Z,15.02
2022-09-24T13:51:00.740Z,14.97
2022-09-24T13:53:07.476Z,15.13
2022-09-24T13:55:18.619Z,15.15
2022-09-24T13:57:24.261Z,15.20
2022-09-24T13:59:28.724Z,15.26
2022-09-24T14:01:39.031Z,15.32
2022-09-24T14:03:42.797Z,15.29
2022-09-24T14:05:45.579Z,15.27
2022-09-24T14:07:55.932Z,15.34
2022-09-24T14:10:07.163Z,15.37
2022-09-24T14:12:16.018Z,15.36
2022-09-24T14:14:21.141Z,15.33
2022-09-24T14:16:26.180Z,15.23
2022-09-24T14:18:29.877Z,15.21
2022-09-24T14:20:36.217Z,15.18
2022-09-24T14:22:42.848Z,15.13
2022-09-24T14:24:52.838Z,15.09
2022-09-24T14:26:59.246Z,15.08
2022-09-24T14:29:06.026Z,15.04
2022-09-24T14:31:10.244Z,15.03
2022-09-24T14:33:19.117Z,15.02
2022-09-24T14:35:30.002Z,15.10
2022-09-24T14:37:35.241Z,15.08
2022-09-24T14:39:42.229Z,15.03
2022-09-24T14:41:45.243Z,15.01
2022-09-24T14:43:51.689Z,14.97
2022-09-24T14:46:03.871Z,14.94
2022-09-24T14:48:18.278Z,14.91
2022-09-24T14:50:38.868Z,14.89
2022-09-24T14:52:41.817Z,14.90
2022-09-24T14:54:44.395Z,14.87
2022-09-24T14:56:46.975Z,14.86
2022-09-24T14:58:49.591Z,14.84
2022-09-24T15:00:56.492Z,14.82
2022-09-24T15:03:01.553Z,14.81
2022-09-24T15:05:08.049Z,14.79
2022-09-24T15:07:17.605Z,14.76
2022-09-24T15:09:28.352Z,14.73
2022-09-24T15:11:36.633Z,14.71
2022-09-24T15:13:39.269Z,14.68
2022-09-24T15:15:42.016Z,14.66
2022-09-24T15:17:47.587Z,14.67
2022-09-24T15:19:54.389Z,14.67
2022-09-24T15:21:58.769Z,14.69
2022-09-24T15:24:03.280Z,14.70
2022-09-24T15:26:05.966Z,14.75
2022-09-24T15:28:14.031Z,14.78
2022-09-24T15:30:20.634Z,14.76
2022-09-24T15:32:23.246Z,14.76
2022-09-24T15:34:26.049Z,14.76
2022-09-24T15:36:29.160Z,14.78
2022-09-24T15:38:32.140Z,14.85
2022-09-24T15:40:36.563Z,14.84
2022-09-24T15:42:39.151Z,14.85
2022-09-24T15:44:44.164Z,14.84
2022-09-24T15:46:48.131Z,14.84
2022-09-24T15:48:50.828Z,14.85
2022-09-24T15:50:53.884Z,14.88
2022-09-24T15:52:59.556Z,14.90
2022-09-24T15:55:03.791Z,14.91
2022-09-24T15:57:07.717Z,14.98
2022-09-24T15:59:13.544Z,14.93
2022-09-24T16:01:19.013Z,14.93
2022-09-24T16:03:24.422Z,14.91
2022-09-24T16:05:27.912Z,14.90
2022-09-24T16:07:30.486Z,14.88
2022-09-24T16:09:33.093Z,14.86
2022-09-24T16:11:35.942Z,14.83
2022-09-24T16:13:39.856Z,14.79
2022-09-24T16:15:43.130Z,14.80
2022-09-24T16:17:45.657Z,14.77
2022-09-24T16:19:48.190Z,14.76
2022-09-24T16:21:52.025Z,14.79
2022-09-24T16:23:55.621Z,14.83
2022-09-24T16:25:59.679Z,14.79
2022-09-24T16:28:02.724Z,14.77
2022-09-24T16:30:08.305Z,14.75
2022-09-24T16:32:11.395Z,14.74
2022-09-24T16:34:14.294Z,14.76
2022-09-24T16:36:16.990Z,14.74
2022-09-24T16:38:22.818Z,14.71
2022-09-24T16:40:25.990Z,14.68
2022-09-24T16:42:28.565Z,14.66
2022-09-24T16:44:31.114Z,14.64
2022-09-24T16:46:35.104Z,14.62
2022-09-24T16:48:37.942Z,14.60
2022-09-24T16:50:40.673Z,14.59
2022-09-24T16:52:44.780Z,14.57
2022-09-24T16:54:47.330Z,14.53
2022-09-24T16:56:50.868Z,14.52
2022-09-24T16:58:53.510Z,14.50
2022-09-24T17:00:56.202Z,14.48
2022-09-24T17:03:00.241Z,14.48
2022-09-24T17:05:03.583Z,14.48
2022-09-24T17:07:06.147Z,14.48
2022-09-24T17:09:26.587Z,14.45
2022-09-24T17:11:29.154Z,14.43
2022-09-24T17:13:31.681Z,14.42
2022-09-24T17:15:35.214Z,14.41
2022-09-24T17:17:45.715Z,14.40
2022-09-24T17:19:53.189Z,14.39
2022-09-24T17:21:55.743Z,14.36
2022-09-24T17:23:58.279Z,14.33
2022-09-24T17:26:04.515Z,14.32
2022-09-24T17:28:07.179Z,14.29
2022-09-24T17:30:11.168Z,14.25
2022-09-24T17:32:13.751Z,14.23
2022-09-24T17:34:16.324Z,14.22
2022-09-24T17:36:20.852Z,14.19
2022-09-24T17:38:23.742Z,14.18
2022-09-24T17:40:26.743Z,14.19
2022-09-24T17:42:31.626Z,14.21
2022-09-24T17:44:34.337Z,14.16
2022-09-24T17:46:37.087Z,14.17
2022-09-24T17:48:41.580Z,14.15
2022-09-24T17:50:44.145Z,14.14
2022-09-24T17:52:48.062Z,14.13
2022-09-24T17:54:50.612Z,14.12
2022-09-24T17:56:53.256Z,14.09
2022-09-24T17:58:56.784Z,14.06
2022-09-24T18:01:06.129Z,14.03
2022-09-24T18:03:08.786Z,14.02
2022-09-24T18:05:11.744Z,13.98
2022-09-24T18:07:14.377Z,13.96
2022-09-24T18:09:19.862Z,13.96
2022-09-24T18:11:24.696Z,13.95
2022-09-24T18:13:27.262Z,13.94
2022-09-24T18:15:31.090Z,13.97
2022-09-24T18:17:33.641Z,13.94
2022-09-24T18:19:36.314Z,13.96
2022-09-24T18:21:39.206Z,13.97
2022-09-24T18:23:43.213Z,13.94
2022-09-24T18:25:47.809Z,13.94
2022-09-24T18:27:50.845Z,13.92
2022-09-24T18:29:53.419Z,13.93
2022-09-24T18:31:55.945Z,13.95
2022-09-24T18:34:05.436Z,13.91
2022-09-24T18:36:10.189Z,13.90
2022-09-24T18:38:13.104Z,13.88
2022-09-24T18:40:15.797Z,13.86
2022-09-24T18:42:19.732Z,13.90
2022-09-24T18:44:22.597Z,13.89
2022-09-24T18:46:26.621Z,13.90
2022-09-24T18:48:29.283Z,13.87
2022-09-24T18:50:31.848Z,13.84
2022-09-24T18:52:34.648Z,13.83
2022-09-24T18:54:37.241Z,13.84
2022-09-24T18:56:40.614Z,13.84
2022-09-24T18:58:44.838Z,13.86
2022-09-24T19:00:54.792Z,13.86
2022-09-24T19:02:58.173Z,13.86
2022-09-24T19:05:00.816Z,13.87
2022-09-24T19:07:03.400Z,13.87
2022-09-24T19:09:07.040Z,13.84
2022-09-24T19:11:13.778Z,13.84
2022-09-24T19:13:17.065Z,13.84
2022-09-24T19:15:20.953Z,13.85
2022-09-24T19:17:23.842Z,13.83
2022-09-24T19:19:26.955Z,13.83
2022-09-24T19:21:30.799Z,13.80
2022-09-24T19:23:37.198Z,13.81
2022-09-24T19:25:41.879Z,13.80
2022-09-24T19:27:44.476Z,13.82
2022-09-24T19:29:47.064Z,13.83
2022-09-24T19:31:51.401Z,13.85
2022-09-24T19:33:54.709Z,13.87
2022-09-24T19:35:58.851Z,13.88
2022-09-24T19:38:01.869Z,13.90
2022-09-24T19:40:04.923Z,13.89
2022-09-24T19:42:08.138Z,13.89
2022-09-24T19:44:11.845Z,13.89
2022-09-24T19:46:16.941Z,13.88
2022-09-24T19:48:20.975Z,13.88
2022-09-24T19:50:24.564Z,13.90
2022-09-24T19:52:27.265Z,13.90
2022-09-24T19:54:30.089Z,13.89
2022-09-24T19:56:33.250Z,13.89
2022-09-24T19:58:36.649Z,13.88
2022-09-24T20:00:39.873Z,13.89
2022-09-24T20:02:43.284Z,13.89
2022-09-24T20:04:47.242Z,13.87
2022-09-24T20:06:49.841Z,13.94
2022-09-24T20:08:52.640Z,13.93
2022-09-24T20:10:55.207Z,13.91
2022-09-24T20:12:58.221Z,13.89
2022-09-24T20:15:00.901Z,13.89
2022-09-24T20:17:03.426Z,13.88
2022-09-24T20:19:05.987Z,13.89
2022-09-24T20:21:10.338Z,13.89
2022-09-24T20:23:13.083Z,13.86
2022-09-24T20:25:15.649Z,13.87
2022-09-24T20:27:36.110Z,13.84
2022-09-24T20:29:38.726Z,13.81
2022-09-24T20:31:42.120Z,13.81
2022-09-24T20:33:44.656Z,13.80
2022-09-24T20:35:47.719Z,13.77
2022-09-24T20:37:52.282Z,13.76
2022-09-24T20:39:55.161Z,13.74
2022-09-24T20:41:59.904Z,13.71
2022-09-24T20:44:03.671Z,13.68
2022-09-24T20:46:10.072Z,13.65
2022-09-24T20:48:12.875Z,13.61
2022-09-24T20:50:15.468Z,13.57
2022-09-24T20:52:18.147Z,13.56
2022-09-24T20:54:22.773Z,13.55
2022-09-24T20:56:26.099Z,13.51
2022-09-24T20:58:28.687Z,13.46
2022-09-24T21:00:35.816Z,13.45
2022-09-24T21:02:41.478Z,13.42
2022-09-24T21:04:44.335Z,13.42
2022-09-24T21:06:47.186Z,13.43
2022-09-24T21:08:51.242Z,13.37
2022-09-24T21:11:02.397Z,13.30
2022-09-24T21:13:04.993Z,13.28
2022-09-24T21:15:09.320Z,13.22
2022-09-24T21:17:12.067Z,13.18
2022-09-24T21:19:15.502Z,13.16
2022-09-24T21:21:19.816Z,13.14
2022-09-24T21:23:24.930Z,13.12
2022-09-24T21:25:52.782Z,13.10
2022-09-24T21:27:51.447Z,13.09
2022-09-24T21:29:54.032Z,13.06
2022-09-24T21:31:56.913Z,13.04
2022-09-24T21:33:59.837Z,13.03
2022-09-24T21:36:02.782Z,13.01
2022-09-24T21:38:05.476Z,12.98
2022-09-24T21:40:10.624Z,12.96
2022-09-24T21:42:14.142Z,12.95
2022-09-24T21:44:19.313Z,12.89
2022-09-24T21:46:22.858Z,12.87
2022-09-24T21:48:26.503Z,12.87
2022-09-24T21:50:30.926Z,12.84
2022-09-24T21:52:33.479Z,12.84
2022-09-24T21:54:36.635Z,12.81
2022-09-24T21:56:39.234Z,12.78
2022-09-24T21:58:41.750Z,12.78
2022-09-24T22:00:44.668Z,12.78
2022-09-24T22:02:47.314Z,12.73
2022-09-24T22:04:49.949Z,12.71
2022-09-24T22:06:52.572Z,12.70
2022-09-24T22:08:56.012Z,12.69
2022-09-24T22:11:03.640Z,12.68
2022-09-24T22:13:06.439Z,12.68
2022-09-24T22:15:10.379Z,12.69
2022-09-24T22:17:14.399Z,12.71
2022-09-24T22:19:17.142Z,12.73
2022-09-24T22:21:19.817Z,12.74
2022-09-24T22:23:23.037Z,12.75
2022-09-24T22:25:25.663Z,12.71
2022-09-24T22:27:28.251Z,12.69
2022-09-24T22:29:33.447Z,12.68
2022-09-24T22:31:36.016Z,12.66
2022-09-24T22:33:58.165Z,12.66
2022-09-24T22:36:01.100Z,12.67
2022-09-24T22:38:03.739Z,12.67
2022-09-24T22:40:07.303Z,12.68
2022-09-24T22:42:09.967Z,12.68
2022-09-24T22:44:13.055Z,12.61
2022-09-24T22:46:16.355Z,12.63
2022-09-24T22:48:18.984Z,12.60
2022-09-24T22:50:22.884Z,12.59
2022-09-24T22:52:25.406Z,12.55
2022-09-24T22:54:27.987Z,12.56
2022-09-24T22:56:30.887Z,12.56
2022-09-24T22:58:33.834Z,12.56
2022-09-24T23:00:36.578Z,12.53
2022-09-24T23:02:39.246Z,12.49
2022-09-24T23:04:42.094Z,12.44
2022-09-24T23:06:46.103Z,12.40
2022-09-24T23:08:49.596Z,12.39
2022-09-24T23:10:52.157Z,12.40
2022-09-24T23:12:54.722Z,12.40
2022-09-24T23:14:58.113Z,12.42
2022-09-24T23:17:00.845Z,12.41
2022-09-24T23:19:06.739Z,12.37
2022-09-24T23:21:12.349Z,12.35
2022-09-24T23:23:16.420Z,12.35
2022-09-24T23:25:18.966Z,12.33
2022-09-24T23:27:22.367Z,12.32
2022-09-24T23:29:25.438Z,12.32
2022-09-24T23:31:30.617Z,12.33
2022-09-24T23:33:34.234Z,12.31
2022-09-24T23:35:36.767Z,12.31
2022-09-24T23:37:39.526Z,12.29
2022-09-24T23:39:43.431Z,12.26
2022-09-24T23:41:46.187Z,12.25
2022-09-24T23:43:48.806Z,12.22
2022-09-24T23:45:51.549Z,12.18
2022-09-24T23:47:54.143Z,12.18
2022-09-24T23:49:56.683Z,12.15
2022-09-24T23:51:59.318Z,12.14
2022-09-24T23:54:01.924Z,12.14
2022-09-24T23:56:08.338Z,12.09
2022-09-24T23:58:11.448Z,12.06
